logo
Search for airport 
image banner adimage banner adimage banner ad
image banner ad

CN44 - Flying Bull

Located in Modesto, United States

ICAO - CN44, IATA -

Data provided by Airmate  

General information

Coordinates: N37°37'14" W121°9'47"
Elevation is 40 feet MSL.
Magnetic variation is 15° East
View others Airports in California

Operational data

Special qualification required
Current time UTC:
Current local time:
METAR: KMOD 052253Z COR 06003KT 10SM SCT019 14/07 A2999 RMK AO2 RAB09E36 SLP156 P0002 T01440067
TAF: KMOD 092327Z 1000/1024 15007KT P6SM OVC060 FM101300 14014G23KT 6SM -RA OVC025
View NOTAMs / SUP AIP / TFR affecting this airport [VIEW]
Communications frequencies: [VIEW]

Runways:

RWY identifierQFULength (ft)Width (ft)SurfaceLDA (ft)
021800100GRASS
201800100GRASS

Airport contact information

Address: Modesto United States

Satellite view of CN44